TAF Text Data
IDs:
Format:
Raw Decoded Include METAR

Data at: 1424 UTC 10 Jul 2020

KBOS 101134Z 1012/1118 16005KT P6SM SCT006 BKN150
  FM101300 12006KT P6SM BKN150
  FM101500 10008KT P6SM BKN150
  FM102100 13009KT P6SM VCSH OVC040
  FM102300 12009KT 4SM BR VCSH OVC015
  FM110100 12011G19KT 3SM SHRA BR OVC008
  FM111500 18012G24KT P6SM BKN020